Time;durP1;ratioP1;P1;durP2;ratioP2;P2;SDS_P1;SDS_P2;PMS_P1;PMS_P2;Temp;Humidity;BMP_temperature;BMP_pressure;BME280_temperature;BME280_humidity;BME280_pressure;Samples;Min_cycle;Max_cycle;Signal;HPM_P1;HPM_P2
2021/01/02 00:01:30;;;;;;;51.17;42.63;;;4.60;99.90;;;;;;5035330;28;20458;-66
2021/01/02 00:04:22;;;;;;;53.17;43.10;;;4.60;99.90;;;;;;5031990;28;20476;-66
2021/01/02 00:07:05;;;;;;;51.10;42.30;;;4.60;99.90;;;;;;5008132;28;20461;-66
2021/01/02 00:09:34;;;;;;;51.10;39.30;;;4.60;99.90;;;;;;5031096;28;20575;-66
2021/01/02 00:12:36;;;;;;;54.23;40.30;;;4.60;99.90;;;;;;5025000;28;20469;-66
2021/01/02 00:15:05;;;;;;;52.30;40.83;;;4.60;99.90;;;;;;5016894;28;20491;-66
2021/01/02 00:18:01;;;;;;;46.53;39.10;;;4.60;99.90;;;;;;5031244;28;20542;-66
2021/01/02 00:20:53;;;;;;;50.10;38.47;;;4.60;99.90;;;;;;5033644;28;20460;-66
2021/01/02 00:23:53;;;;;;;50.60;38.23;;;4.60;99.90;;;;;;5033046;28;20514;-63
2021/01/02 00:26:33;;;;;;;46.37;38.43;;;4.60;99.90;;;;;;5014447;28;20892;-62
2021/01/02 00:29:03;;;;;;;42.70;36.60;;;4.60;99.90;;;;;;5033833;28;20456;-63
2021/01/02 00:31:56;;;;;;;44.70;38.63;;;4.60;99.90;;;;;;5033837;28;20496;-63
2021/01/02 00:34:41;;;;;;;43.23;36.20;;;4.60;99.90;;;;;;5032316;28;20484;-64
2021/01/02 00:37:15;;;;;;;46.57;38.90;;;4.70;99.90;;;;;;5032125;28;20979;-66
2021/01/02 00:39:56;;;;;;;43.60;36.10;;;4.60;99.90;;;;;;5033796;28;21029;-65
2021/01/02 00:42:22;;;;;;;45.97;37.30;;;4.70;99.90;;;;;;5029524;28;20989;-66
2021/01/02 00:44:51;;;;;;;46.23;37.83;;;4.60;99.90;;;;;;5034791;28;20857;-66
2021/01/02 00:47:18;;;;;;;42.90;36.20;;;4.60;99.90;;;;;;5030951;28;20495;-65
2021/01/02 00:49:47;;;;;;;52.03;38.87;;;4.60;99.90;;;;;;5030221;28;21023;-66
2021/01/02 00:52:30;;;;;;;48.40;38.97;;;4.60;99.90;;;;;;5027497;28;20464;-65
2021/01/02 00:55:12;;;;;;;47.23;39.07;;;4.60;99.90;;;;;;5033135;28;20483;-66
2021/01/02 00:57:57;;;;;;;43.40;35.97;;;4.60;99.90;;;;;;5029004;28;20460;-66
2021/01/02 01:00:29;;;;;;;48.50;38.33;;;4.50;99.90;;;;;;5034094;28;20437;-66
2021/01/02 01:03:04;;;;;;;42.20;35.20;;;4.50;99.90;;;;;;5031918;28;20457;-66
2021/01/02 01:05:34;;;;;;;43.60;36.43;;;4.50;99.90;;;;;;5032812;28;20470;-66
2021/01/02 01:08:01;;;;;;;41.83;34.33;;;4.50;99.90;;;;;;5031557;28;20985;-66
2021/01/02 01:10:30;;;;;;;41.57;33.53;;;4.50;99.90;;;;;;5030267;28;20485;-65
2021/01/02 01:13:03;;;;;;;42.23;34.07;;;4.60;99.90;;;;;;5016286;28;20461;-66
2021/01/02 01:15:29;;;;;;;41.73;34.40;;;4.50;99.90;;;;;;5014257;28;20440;-66
2021/01/02 01:18:36;;;;;;;38.83;33.33;;;4.50;99.90;;;;;;5028562;28;20469;-66
2021/01/02 01:21:06;;;;;;;44.30;35.33;;;4.60;99.90;;;;;;5015511;28;21145;-66
2021/01/02 01:23:51;;;;;;;41.00;34.17;;;4.60;99.90;;;;;;5019102;28;20480;-66
2021/01/02 01:26:40;;;;;;;38.60;32.60;;;4.60;99.90;;;;;;5030821;28;20456;-66
2021/01/02 01:29:14;;;;;;;40.30;33.93;;;4.60;99.90;;;;;;5033273;28;20455;-66
2021/01/02 01:31:45;;;;;;;40.00;30.97;;;4.60;99.90;;;;;;5025592;28;20464;-65
2021/01/02 01:34:20;;;;;;;40.17;33.20;;;4.60;99.90;;;;;;5019806;28;20488;-66
2021/01/02 01:36:48;;;;;;;42.43;33.90;;;4.50;99.90;;;;;;5031799;28;20456;-67
2021/01/02 01:39:15;;;;;;;39.13;33.50;;;4.50;99.90;;;;;;5029419;28;20500;-64
2021/01/02 01:41:44;;;;;;;46.37;33.77;;;4.50;99.90;;;;;;5018336;28;20461;-67
2021/01/02 01:44:46;;;;;;;39.67;33.07;;;4.50;99.90;;;;;;5028669;28;20477;-67
2021/01/02 01:47:15;;;;;;;41.60;35.43;;;4.40;99.90;;;;;;5029043;28;20474;-67
2021/01/02 01:50:11;;;;;;;40.20;34.13;;;4.40;99.90;;;;;;5030861;28;20496;-67
2021/01/02 01:52:59;;;;;;;38.97;32.97;;;4.40;99.90;;;;;;5026586;28;20875;-66
2021/01/02 01:55:29;;;;;;;39.73;32.73;;;4.40;99.90;;;;;;4991894;28;20456;-67
2021/01/02 01:58:10;;;;;;;38.10;32.97;;;4.40;99.90;;;;;;5030733;28;20457;-69
2021/01/02 02:00:45;;;;;;;42.60;33.90;;;4.40;99.90;;;;;;5032281;28;20472;-67
2021/01/02 02:03:22;;;;;;;39.53;33.50;;;4.40;99.90;;;;;;5032597;28;20470;-67
2021/01/02 02:06:01;;;;;;;38.17;33.67;;;4.50;99.90;;;;;;5029639;28;20456;-66
2021/01/02 02:08:44;;;;;;;38.83;34.50;;;4.40;99.90;;;;;;5025147;28;20487;-66
2021/01/02 02:11:31;;;;;;;39.50;33.67;;;4.40;99.90;;;;;;5025168;28;20531;-66
2021/01/02 02:14:09;;;;;;;40.83;34.60;;;4.40;99.90;;;;;;5027286;28;20863;-65
2021/01/02 02:16:41;;;;;;;38.47;32.47;;;4.40;99.90;;;;;;5032337;28;20466;-64
2021/01/02 02:19:28;;;;;;;40.10;32.80;;;4.40;99.90;;;;;;5032611;28;20464;-65
2021/01/02 02:22:00;;;;;;;38.40;32.57;;;4.40;99.90;;;;;;5012820;28;20796;-65
2021/01/02 02:24:30;;;;;;;40.17;34.17;;;4.40;99.90;;;;;;5025826;28;20481;-65
2021/01/02 02:26:58;;;;;;;37.67;33.67;;;4.40;99.90;;;;;;5013274;28;20438;-65
2021/01/02 02:29:29;;;;;;;39.10;31.47;;;4.40;99.90;;;;;;5019432;28;20824;-65
2021/01/02 02:31:56;;;;;;;38.80;32.03;;;4.40;99.90;;;;;;5032567;28;20507;-65
2021/01/02 02:34:23;;;;;;;37.27;30.80;;;4.40;99.90;;;;;;5031163;28;20484;-65
2021/01/02 02:36:49;;;;;;;38.20;31.63;;;4.40;99.90;;;;;;5031032;28;20495;-66
2021/01/02 02:39:16;;;;;;;39.37;33.50;;;4.50;99.90;;;;;;5030939;28;21130;-66
2021/01/02 02:41:44;;;;;;;39.90;33.43;;;4.50;99.90;;;;;;5031634;28;20459;-66
2021/01/02 02:44:11;;;;;;;42.57;34.20;;;4.50;99.90;;;;;;5031571;28;20484;-66
2021/01/02 02:46:43;;;;;;;38.70;32.00;;;4.50;99.90;;;;;;5021985;28;20453;-65
2021/01/02 02:49:12;;;;;;;38.10;32.13;;;4.50;99.90;;;;;;5018888;28;20463;-65
2021/01/02 02:51:47;;;;;;;40.90;32.43;;;4.40;99.90;;;;;;5016197;28;20432;-65
2021/01/02 02:54:14;;;;;;;41.63;33.20;;;4.30;99.90;;;;;;5029187;28;21075;-66
2021/01/02 02:56:40;;;;;;;39.53;33.07;;;4.30;99.90;;;;;;5012761;28;20441;-66
2021/01/02 02:59:06;;;;;;;36.77;32.77;;;4.30;99.90;;;;;;5024055;28;21130;-65
2021/01/02 03:01:32;;;;;;;39.00;33.60;;;4.20;99.90;;;;;;5032198;28;20443;-66
2021/01/02 03:03:59;;;;;;;41.80;32.83;;;4.20;99.90;;;;;;5030741;28;20480;-66
2021/01/02 03:06:31;;;;;;;36.70;32.67;;;4.20;99.90;;;;;;5029984;28;20461;-65
2021/01/02 03:08:58;;;;;;;40.87;32.83;;;4.20;99.90;;;;;;5031350;28;20701;-66
2021/01/02 03:11:24;;;;;;;46.70;34.97;;;4.20;99.90;;;;;;5012830;28;20963;-65
2021/01/02 03:13:51;;;;;;;38.80;31.37;;;4.20;99.90;;;;;;5021345;28;20496;-66
2021/01/02 03:16:18;;;;;;;40.00;34.67;;;4.20;99.90;;;;;;5013822;28;20461;-65
2021/01/02 03:18:45;;;;;;;37.20;33.13;;;4.20;99.90;;;;;;5019552;28;20473;-65
2021/01/02 03:21:12;;;;;;;38.07;32.93;;;4.20;99.90;;;;;;5025706;28;20873;-66
2021/01/02 03:23:43;;;;;;;39.80;33.77;;;4.30;99.90;;;;;;5030628;28;20537;-63
2021/01/02 03:26:09;;;;;;;40.97;34.33;;;4.30;99.90;;;;;;5023806;28;20464;-63
2021/01/02 03:28:36;;;;;;;43.93;36.27;;;4.30;99.90;;;;;;5031678;28;20461;-63
2021/01/02 03:31:02;;;;;;;38.10;33.97;;;4.30;99.90;;;;;;5026859;28;20483;-62
2021/01/02 03:33:29;;;;;;;40.73;34.80;;;4.30;99.90;;;;;;5029539;28;20484;-63
2021/01/02 03:35:58;;;;;;;38.17;34.00;;;4.30;99.90;;;;;;5032683;28;20498;-63
2021/01/02 03:38:26;;;;;;;39.17;34.00;;;4.30;99.90;;;;;;5036146;28;20451;-62
2021/01/02 03:40:52;;;;;;;40.50;34.50;;;4.30;99.90;;;;;;5034989;28;20465;-63
2021/01/02 03:43:19;;;;;;;39.67;33.43;;;4.40;99.90;;;;;;5035258;28;21029;-63
2021/01/02 03:45:45;;;;;;;41.50;34.10;;;4.40;99.90;;;;;;5034069;28;20959;-63
2021/01/02 03:48:11;;;;;;;39.80;33.20;;;4.40;99.90;;;;;;5036070;28;20939;-62
2021/01/02 03:50:37;;;;;;;43.30;35.53;;;4.40;99.90;;;;;;5021349;28;20860;-64
2021/01/02 03:53:04;;;;;;;44.20;35.80;;;4.40;99.90;;;;;;5016570;28;20825;-64
2021/01/02 03:55:31;;;;;;;47.00;38.50;;;4.50;99.90;;;;;;5035103;28;20448;-63
2021/01/02 03:57:58;;;;;;;44.40;37.37;;;4.40;99.90;;;;;;5035251;28;20796;-64
2021/01/02 04:00:24;;;;;;;41.57;35.10;;;4.40;99.90;;;;;;5036134;28;20460;-64
2021/01/02 04:02:50;;;;;;;41.33;35.70;;;4.40;99.90;;;;;;5041604;28;20464;-64
2021/01/02 04:05:16;;;;;;;44.23;39.50;;;4.40;99.90;;;;;;5035700;28;20453;-63
2021/01/02 04:07:43;;;;;;;47.20;42.00;;;4.30;99.90;;;;;;5034220;28;20464;-63
2021/01/02 04:10:10;;;;;;;45.60;40.90;;;4.30;99.90;;;;;;5026159;28;20485;-63
2021/01/02 04:12:37;;;;;;;47.73;42.83;;;4.20;99.90;;;;;;5015118;28;21122;-63
2021/01/02 04:15:04;;;;;;;45.83;41.10;;;4.20;99.90;;;;;;5020320;28;20497;-63
2021/01/02 04:17:31;;;;;;;44.87;40.17;;;4.20;99.90;;;;;;5015292;28;20940;-64
2021/01/02 04:19:57;;;;;;;47.23;42.33;;;4.20;99.90;;;;;;5025651;28;20458;-64
2021/01/02 04:22:23;;;;;;;43.73;39.10;;;4.30;99.90;;;;;;5028862;28;20468;-64
2021/01/02 04:24:49;;;;;;;44.90;40.10;;;4.20;99.90;;;;;;5033324;28;20473;-63
2021/01/02 04:27:15;;;;;;;43.77;39.03;;;4.30;99.90;;;;;;5033287;28;20515;-63
2021/01/02 04:29:43;;;;;;;46.73;41.73;;;4.30;99.90;;;;;;5033908;28;20483;-63
2021/01/02 04:32:09;;;;;;;43.77;39.17;;;4.30;99.90;;;;;;5034020;28;20580;-64
2021/01/02 04:34:35;;;;;;;44.30;39.50;;;4.30;99.90;;;;;;5031245;28;20491;-64
2021/01/02 04:37:01;;;;;;;45.83;40.93;;;4.30;99.90;;;;;;5034072;28;20480;-64
2021/01/02 04:39:28;;;;;;;45.40;40.60;;;4.30;99.90;;;;;;5027127;28;20464;-64
2021/01/02 04:41:56;;;;;;;44.10;39.57;;;4.30;99.90;;;;;;5015034;28;20867;-64
2021/01/02 04:44:23;;;;;;;45.53;40.70;;;4.30;99.90;;;;;;5019043;28;20485;-64
2021/01/02 04:46:51;;;;;;;43.50;38.80;;;4.30;99.90;;;;;;5033174;28;20464;-63
2021/01/02 04:49:18;;;;;;;44.70;40.03;;;4.30;99.90;;;;;;5032484;28;20475;-64
2021/01/02 04:51:44;;;;;;;44.93;40.23;;;4.30;99.90;;;;;;5034469;28;20961;-64
2021/01/02 04:54:12;;;;;;;43.37;39.03;;;4.30;99.90;;;;;;5033028;28;20481;-64
2021/01/02 04:56:39;;;;;;;43.20;38.70;;;4.30;99.90;;;;;;5032755;28;20475;-64
2021/01/02 04:59:10;;;;;;;44.23;39.50;;;4.30;99.90;;;;;;5032700;28;20464;-64
2021/01/02 05:01:38;;;;;;;42.10;37.60;;;4.30;99.90;;;;;;5034397;28;20950;-64
2021/01/02 05:04:06;;;;;;;46.67;41.77;;;4.30;99.90;;;;;;5031910;28;20515;-64
2021/01/02 05:06:32;;;;;;;42.10;37.67;;;4.30;99.90;;;;;;5033391;28;20469;-64
2021/01/02 05:09:00;;;;;;;43.07;38.77;;;4.30;99.90;;;;;;5033306;28;20471;-64
2021/01/02 05:11:27;;;;;;;43.07;38.47;;;4.30;99.90;;;;;;5032735;28;20509;-64
2021/01/02 05:14:00;;;;;;;43.80;39.13;;;4.30;99.90;;;;;;5033361;28;20472;-64
2021/01/02 05:16:34;;;;;;;42.20;37.90;;;4.30;99.90;;;;;;5029400;28;20466;-64
2021/01/02 05:19:03;;;;;;;44.03;39.40;;;4.30;99.90;;;;;;5033312;28;21008;-64
2021/01/02 05:21:31;;;;;;;46.27;41.27;;;4.30;99.90;;;;;;5032041;28;20441;-64
2021/01/02 05:24:12;;;;;;;46.57;40.03;;;4.30;99.90;;;;;;5013586;28;20530;-63
2021/01/02 05:26:40;;;;;;;46.90;42.00;;;4.30;99.90;;;;;;5030696;28;20471;-64
2021/01/02 05:29:16;;;;;;;48.03;42.83;;;4.30;99.90;;;;;;5031712;28;20468;-66
2021/01/02 05:31:45;;;;;;;46.70;41.57;;;4.30;99.90;;;;;;5032121;28;21017;-64
2021/01/02 05:34:13;;;;;;;47.40;42.20;;;4.30;99.90;;;;;;5032366;28;20484;-64
2021/01/02 05:36:40;;;;;;;46.50;41.60;;;4.30;99.90;;;;;;5022441;28;20465;-64
2021/01/02 05:39:09;;;;;;;46.13;41.27;;;4.30;99.90;;;;;;5032401;28;20884;-63
2021/01/02 05:41:50;;;;;;;45.10;39.17;;;4.30;99.90;;;;;;5032834;28;20472;-64
2021/01/02 05:44:17;;;;;;;49.57;44.17;;;4.30;99.90;;;;;;5032295;28;20481;-64
2021/01/02 05:46:45;;;;;;;50.10;43.60;;;4.30;99.90;;;;;;5034389;28;20915;-64
2021/01/02 05:49:38;;;;;;;54.60;46.60;;;4.30;99.90;;;;;;5030046;28;20469;-64
2021/01/02 05:52:07;;;;;;;52.23;46.53;;;4.30;99.90;;;;;;5013772;28;20449;-64
2021/01/02 05:54:35;;;;;;;53.50;45.00;;;4.30;99.90;;;;;;5025039;28;20529;-64
2021/01/02 05:57:03;;;;;;;59.03;46.60;;;4.30;99.90;;;;;;5031819;28;20459;-64
2021/01/02 05:59:31;;;;;;;55.03;45.77;;;4.30;99.90;;;;;;5031164;28;20517;-64
2021/01/02 06:01:59;;;;;;;53.40;46.57;;;4.30;99.90;;;;;;5027848;28;20461;-64
2021/01/02 06:04:25;;;;;;;57.57;48.90;;;4.30;99.90;;;;;;5025313;28;21010;-64
2021/01/02 06:07:06;;;;;;;56.10;46.70;;;4.30;99.90;;;;;;5030184;28;20470;-64
2021/01/02 06:09:34;;;;;;;56.47;49.00;;;4.30;99.90;;;;;;5031045;28;20525;-63
2021/01/02 06:12:04;;;;;;;54.97;46.97;;;4.30;99.90;;;;;;5028171;28;20469;-64
2021/01/02 06:14:33;;;;;;;55.73;47.87;;;4.30;99.90;;;;;;5030259;28;20496;-64
2021/01/02 06:17:05;;;;;;;55.63;48.00;;;4.30;99.90;;;;;;5032155;28;20452;-63
2021/01/02 06:19:31;;;;;;;57.90;48.43;;;4.30;99.90;;;;;;5030283;28;20886;-63
2021/01/02 06:21:58;;;;;;;63.17;49.80;;;4.30;99.90;;;;;;5030757;28;20475;-64
2021/01/02 06:24:25;;;;;;;59.60;48.43;;;4.30;99.90;;;;;;5024234;28;20480;-63
2021/01/02 06:26:52;;;;;;;59.97;47.87;;;4.30;99.90;;;;;;5031709;28;20817;-63
2021/01/02 06:29:18;;;;;;;58.00;48.90;;;4.30;99.90;;;;;;5023940;28;20468;-63
2021/01/02 06:31:45;;;;;;;56.47;47.67;;;4.30;99.90;;;;;;5031328;28;20484;-63
2021/01/02 06:34:12;;;;;;;56.27;49.27;;;4.30;99.90;;;;;;5016861;28;20487;-63
2021/01/02 06:36:40;;;;;;;64.07;48.87;;;4.30;99.90;;;;;;5031463;28;20465;-63
2021/01/02 06:39:20;;;;;;;54.40;46.37;;;4.30;99.90;;;;;;5029682;28;20947;-63
2021/01/02 06:41:48;;;;;;;55.60;48.30;;;4.30;99.90;;;;;;5031975;28;20506;-62
2021/01/02 06:44:43;;;;;;;49.80;43.37;;;4.30;99.90;;;;;;5017206;28;20571;-63
2021/01/02 06:47:17;;;;;;;53.20;44.80;;;4.30;99.90;;;;;;5031959;28;20854;-63
2021/01/02 06:49:45;;;;;;;51.53;44.30;;;4.30;99.90;;;;;;5030530;28;20468;-62
2021/01/02 06:52:28;;;;;;;52.23;43.90;;;4.30;99.90;;;;;;5029563;28;20987;-63
2021/01/02 06:54:55;;;;;;;52.50;44.47;;;4.30;99.90;;;;;;5012710;28;20492;-63
2021/01/02 06:57:27;;;;;;;23.80;14.80;;;4.30;99.90;;;;;;5025394;28;20848;-65
2021/01/02 06:59:53;;;;;;;17.33;13.80;;;8.50;99.90;;;;;;5012579;28;20492;-66
2021/01/02 07:02:31;;;;;;;21.43;17.37;;;11.70;99.90;;;;;;5014087;28;20448;-64
2021/01/02 07:04:57;;;;;;;24.33;17.20;;;13.10;99.90;;;;;;5025557;28;20489;-64
2021/01/02 07:07:39;;;;;;;20.83;16.17;;;14.30;99.90;;;;;;5035631;28;20452;-64
2021/01/02 07:10:17;;;;;;;18.63;16.73;;;15.50;99.90;;;;;;5035725;28;20874;-64
2021/01/02 07:12:44;;;;;;;16.50;15.00;;;16.40;99.90;;;;;;5030568;28;20442;-64
2021/01/02 07:15:11;;;;;;;17.03;14.93;;;17.20;99.90;;;;;;5013864;28;20466;-63
2021/01/02 07:17:37;;;;;;;15.57;14.17;;;18.10;99.90;;;;;;5016900;28;21066;-64
2021/01/02 07:20:06;;;;;;;17.60;15.93;;;18.60;99.90;;;;;;5040767;28;20466;-65
2021/01/02 07:22:32;;;;;;;16.00;14.53;;;18.60;99.90;;;;;;5036322;28;20466;-64
2021/01/02 07:25:05;;;;;;;16.43;14.90;;;19.00;99.90;;;;;;5017105;28;20534;-64
2021/01/02 07:27:34;;;;;;;17.57;16.17;;;19.00;99.90;;;;;;5014320;28;20449;-63
2021/01/02 07:30:07;;;;;;;14.67;13.17;;;19.00;99.90;;;;;;5026954;28;20484;-64
2021/01/02 07:32:35;;;;;;;13.93;12.73;;;19.40;99.90;;;;;;5022550;28;20965;-64
2021/01/02 07:35:04;;;;;;;14.60;13.10;;;19.70;99.90;;;;;;5029831;28;20978;-64
2021/01/02 07:37:32;;;;;;;15.73;14.30;;;19.60;99.90;;;;;;5025247;28;20592;-64
2021/01/02 07:40:00;;;;;;;18.53;16.80;;;19.40;99.90;;;;;;5017515;28;20453;-63
2021/01/02 07:42:28;;;;;;;16.97;15.10;;;19.50;99.90;;;;;;5021192;28;20831;-64
2021/01/02 07:44:57;;;;;;;16.33;14.83;;;19.70;99.90;;;;;;5031457;28;20461;-64
2021/01/02 07:47:25;;;;;;;16.97;15.37;;;19.40;99.90;;;;;;5031070;28;20453;-64
2021/01/02 07:50:03;;;;;;;15.43;13.90;;;19.70;99.90;;;;;;5030899;28;20533;-63
2021/01/02 07:52:29;;;;;;;14.63;13.27;;;19.90;99.90;;;;;;5031659;28;20475;-63
2021/01/02 07:54:56;;;;;;;15.83;14.33;;;20.00;99.90;;;;;;5030881;28;20475;-64
2021/01/02 07:57:24;;;;;;;15.73;14.23;;;20.00;99.90;;;;;;5018325;28;20465;-64
2021/01/02 07:59:50;;;;;;;16.33;14.80;;;20.00;99.90;;;;;;5019346;28;20456;-64
2021/01/02 08:02:21;;;;;;;42.53;38.30;;;18.40;99.90;;;;;;5031448;28;20456;-63
2021/01/02 08:04:49;;;;;;;47.47;42.33;;;7.20;99.90;;;;;;5030480;28;20478;-63
2021/01/02 08:07:15;;;;;;;48.00;42.80;;;5.60;99.90;;;;;;5013836;28;20814;-65
2021/01/02 08:09:44;;;;;;;47.17;41.97;;;5.00;99.90;;;;;;5030990;28;20441;-64
2021/01/02 08:12:12;;;;;;;51.43;43.57;;;4.80;99.90;;;;;;5030727;28;20448;-64
2021/01/02 08:14:44;;;;;;;47.73;40.93;;;4.70;99.90;;;;;;5030707;28;20484;-65
2021/01/02 08:17:11;;;;;;;48.53;42.40;;;4.60;99.90;;;;;;5011431;28;20964;-64
2021/01/02 08:19:39;;;;;;;49.97;43.60;;;4.60;99.90;;;;;;5029282;28;20449;-64
2021/01/02 08:22:08;;;;;;;50.93;42.07;;;4.50;99.90;;;;;;5033067;28;20506;-65
2021/01/02 08:24:36;;;;;;;45.23;32.87;;;4.50;99.90;;;;;;5034319;28;20494;-65
2021/01/02 08:27:03;;;;;;;30.33;24.13;;;5.30;99.90;;;;;;5033523;28;20862;-65
2021/01/02 08:29:32;;;;;;;36.47;30.07;;;6.00;99.90;;;;;;5034974;28;20449;-65
2021/01/02 08:32:02;;;;;;;42.77;34.27;;;6.80;99.90;;;;;;5034223;28;20484;-65
2021/01/02 08:34:30;;;;;;;44.67;34.60;;;6.60;99.90;;;;;;5034292;28;20480;-65
2021/01/02 08:37:05;;;;;;;20.97;16.83;;;6.20;99.90;;;;;;5018971;28;20861;-68
2021/01/02 08:39:33;;;;;;;42.10;37.67;;;10.40;99.90;;;;;;5015527;28;20837;-68
2021/01/02 08:42:00;;;;;;;48.50;42.10;;;7.60;99.90;;;;;;5016265;28;20507;-66
2021/01/02 08:44:31;;;;;;;48.43;43.13;;;5.10;99.90;;;;;;5016165;28;20492;-65
2021/01/02 08:46:58;;;;;;;55.60;45.07;;;4.70;99.90;;;;;;5017076;28;20464;-67
2021/01/02 08:49:36;;;;;;;57.53;46.83;;;4.50;99.90;;;;;;5015629;28;20453;-67
2021/01/02 08:52:23;;;;;;;56.80;46.60;;;4.40;99.90;;;;;;5015643;28;20473;-66
2021/01/02 08:54:53;;;;;;;57.30;44.83;;;4.50;99.90;;;;;;5032731;28;20851;-66
2021/01/02 08:57:33;;;;;;;58.23;49.37;;;4.40;99.90;;;;;;5020144;28;20445;-66
2021/01/02 09:00:23;;;;;;;59.63;47.60;;;4.40;99.90;;;;;;5029482;28;20453;-66
2021/01/02 09:03:02;;;;;;;60.10;48.03;;;4.40;99.90;;;;;;5029139;28;21093;-66
2021/01/02 09:05:30;;;;;;;57.53;48.27;;;4.40;99.90;;;;;;5033134;28;20469;-65
2021/01/02 09:07:58;;;;;;;56.03;46.30;;;4.30;99.90;;;;;;5032368;28;20445;-64
2021/01/02 09:10:34;;;;;;;53.90;46.37;;;4.40;99.90;;;;;;5028213;28;20486;-63
2021/01/02 09:13:21;;;;;;;55.10;45.30;;;4.30;99.90;;;;;;5020019;28;20523;-63
2021/01/02 09:15:53;;;;;;;53.50;44.23;;;4.40;99.90;;;;;;5026962;28;20507;-65
2021/01/02 09:18:39;;;;;;;54.53;44.37;;;4.40;99.90;;;;;;5033197;28;20971;-64
2021/01/02 09:21:26;;;;;;;56.83;45.13;;;4.50;99.90;;;;;;5032432;28;20448;-64
2021/01/02 09:23:53;;;;;;;57.93;43.87;;;4.50;99.90;;;;;;5033297;28;20499;-65
2021/01/02 09:26:23;;;;;;;51.87;43.80;;;4.40;99.90;;;;;;5032281;28;20449;-66
2021/01/02 09:28:50;;;;;;;52.27;43.27;;;4.40;99.90;;;;;;5033537;28;20476;-65
2021/01/02 09:31:16;;;;;;;54.83;43.80;;;4.40;99.90;;;;;;5032151;28;21007;-66
2021/01/02 09:33:43;;;;;;;56.83;45.23;;;4.40;99.90;;;;;;5032195;28;20834;-65
2021/01/02 09:36:12;;;;;;;59.73;47.50;;;4.40;99.90;;;;;;5033219;28;20455;-65
2021/01/02 09:38:39;;;;;;;55.13;46.13;;;4.30;99.90;;;;;;5033576;28;20453;-65
2021/01/02 09:41:06;;;;;;;54.10;45.90;;;4.30;99.90;;;;;;5029814;28;20460;-64
2021/01/02 09:43:32;;;;;;;54.47;45.83;;;4.40;99.90;;;;;;5032925;28;20479;-65
2021/01/02 09:45:58;;;;;;;53.23;42.57;;;4.40;99.90;;;;;;5032100;28;20868;-65
2021/01/02 09:48:24;;;;;;;51.20;42.90;;;4.50;99.90;;;;;;5032454;28;20483;-65
2021/01/02 09:50:52;;;;;;;55.57;41.37;;;4.50;99.90;;;;;;5032676;28;20488;-66
2021/01/02 09:53:19;;;;;;;54.30;44.60;;;4.40;99.90;;;;;;5032135;28;20563;-66
2021/01/02 09:55:45;;;;;;;55.70;42.77;;;4.40;99.90;;;;;;5029477;28;20453;-66
2021/01/02 09:58:13;;;;;;;56.27;44.27;;;6.60;99.90;;;;;;5013223;28;20453;-66
2021/01/02 10:00:39;;;;;;;56.97;37.50;;;4.60;99.90;;;;;;5013737;28;20446;-66
2021/01/02 10:03:07;;;;;;;52.80;43.77;;;4.50;99.90;;;;;;5033053;28;20518;-66
2021/01/02 10:05:34;;;;;;;51.87;43.27;;;4.50;99.90;;;;;;5029710;28;20453;-66
2021/01/02 10:08:00;;;;;;;54.50;43.27;;;4.40;99.90;;;;;;5033175;28;20795;-65
2021/01/02 10:10:26;;;;;;;51.13;44.47;;;4.40;99.90;;;;;;5032209;28;20526;-65
2021/01/02 10:12:53;;;;;;;60.37;47.40;;;4.40;99.90;;;;;;5016541;28;20444;-66
2021/01/02 10:15:20;;;;;;;57.47;45.00;;;4.40;99.90;;;;;;5031450;28;20456;-66
2021/01/02 10:17:47;;;;;;;41.23;30.93;;;4.50;99.90;;;;;;5014588;28;20956;-65
2021/01/02 10:20:14;;;;;;;53.80;43.73;;;4.90;99.90;;;;;;5022594;28;20829;-65
2021/01/02 10:22:41;;;;;;;57.27;44.77;;;4.50;99.90;;;;;;5041307;28;20484;-66
2021/01/02 10:25:09;;;;;;;58.00;46.27;;;4.40;99.90;;;;;;5036607;28;20465;-66
2021/01/02 10:27:36;;;;;;;56.97;45.87;;;4.50;99.90;;;;;;5030630;28;20453;-67
2021/01/02 10:30:04;;;;;;;57.23;48.07;;;4.40;99.90;;;;;;5035640;28;20463;-66
2021/01/02 10:32:31;;;;;;;62.43;49.93;;;4.40;99.90;;;;;;5034288;28;20441;-68
2021/01/02 10:34:58;;;;;;;60.00;48.53;;;4.50;99.90;;;;;;5030250;28;20483;-67
2021/01/02 10:37:27;;;;;;;55.47;45.37;;;4.50;99.90;;;;;;5029159;28;20449;-67
2021/01/02 10:39:54;;;;;;;56.37;44.53;;;4.60;99.90;;;;;;5035761;28;20455;-68
2021/01/02 10:42:23;;;;;;;45.53;31.73;;;4.60;99.90;;;;;;5021001;28;20461;-68
2021/01/02 10:44:50;;;;;;;58.47;47.33;;;5.70;99.90;;;;;;5014064;28;20470;-68
2021/01/02 10:47:18;;;;;;;58.30;46.03;;;4.70;99.90;;;;;;5032835;28;20445;-67
2021/01/02 10:49:46;;;;;;;59.97;46.43;;;4.60;99.90;;;;;;5032367;28;20447;-67
2021/01/02 10:52:14;;;;;;;66.13;49.37;;;4.70;99.90;;;;;;5032057;28;20485;-67
2021/01/02 10:54:43;;;;;;;63.87;48.33;;;4.70;99.90;;;;;;5031932;28;20514;-69
2021/01/02 10:57:09;;;;;;;60.20;47.20;;;4.80;99.90;;;;;;5031633;28;20456;-66
2021/01/02 10:59:35;;;;;;;56.83;44.50;;;4.90;99.90;;;;;;5031688;28;20453;-66
2021/01/02 11:02:02;;;;;;;61.10;47.77;;;4.80;99.90;;;;;;5031666;28;20518;-65
2021/01/02 11:04:28;;;;;;;64.00;49.67;;;4.80;99.90;;;;;;5031186;28;20464;-65
2021/01/02 11:06:56;;;;;;;64.40;51.83;;;4.60;99.90;;;;;;5032210;28;20451;-65
2021/01/02 11:09:24;;;;;;;63.33;49.30;;;4.60;99.90;;;;;;5031994;28;20448;-65
2021/01/02 11:11:52;;;;;;;68.00;51.93;;;4.60;99.90;;;;;;5031899;28;20537;-65
2021/01/02 11:14:19;;;;;;;71.00;50.23;;;4.60;99.90;;;;;;5031376;28;20480;-64
2021/01/02 11:16:47;;;;;;;63.57;51.30;;;4.60;99.90;;;;;;5031880;28;20490;-65
2021/01/02 11:19:15;;;;;;;65.30;46.87;;;4.60;99.90;;;;;;5029734;28;20464;-65
2021/01/02 11:21:42;;;;;;;54.07;32.17;;;4.60;99.90;;;;;;5027099;28;20478;-65
2021/01/02 11:24:09;;;;;;;68.17;48.33;;;5.60;99.90;;;;;;5019418;28;20468;-66
2021/01/02 11:26:36;;;;;;;73.30;54.37;;;4.80;99.90;;;;;;5014894;28;20457;-66
2021/01/02 11:29:03;;;;;;;77.40;54.33;;;4.50;99.90;;;;;;5029956;28;20453;-66
2021/01/02 11:31:30;;;;;;;70.67;52.50;;;4.60;99.90;;;;;;5031381;28;20483;-65
2021/01/02 11:33:56;;;;;;;67.07;50.57;;;4.60;99.90;;;;;;5031250;28;20545;-66
2021/01/02 11:36:23;;;;;;;70.93;53.03;;;4.60;99.90;;;;;;5029024;28;20961;-66
2021/01/02 11:38:49;;;;;;;67.40;51.73;;;4.50;99.90;;;;;;5011633;28;20955;-66
2021/01/02 11:41:18;;;;;;;70.80;52.40;;;4.50;99.90;;;;;;5012480;28;20452;-66
2021/01/02 11:43:45;;;;;;;68.27;50.33;;;4.50;99.90;;;;;;5011453;28;20479;-66
2021/01/02 11:46:11;;;;;;;71.07;53.50;;;4.60;99.90;;;;;;5012075;28;20449;-66
2021/01/02 11:48:40;;;;;;;65.63;52.60;;;4.50;99.90;;;;;;5031512;28;20792;-67
2021/01/02 11:51:12;;;;;;;69.63;51.20;;;4.50;99.90;;;;;;5031156;28;20487;-66
2021/01/02 11:53:38;;;;;;;65.77;51.93;;;4.40;99.90;;;;;;5011919;28;20485;-67
2021/01/02 11:56:05;;;;;;;67.90;50.87;;;4.50;99.90;;;;;;5014152;28;20452;-67
2021/01/02 11:58:32;;;;;;;67.70;52.17;;;4.50;99.90;;;;;;5033817;28;20445;-67
2021/01/02 12:00:59;;;;;;;60.90;48.30;;;4.50;99.90;;;;;;5035139;28;20453;-67
2021/01/02 12:03:25;;;;;;;61.17;49.00;;;4.50;99.90;;;;;;5017365;28;20476;-67
2021/01/02 12:05:51;;;;;;;66.17;49.90;;;4.90;99.90;;;;;;5025271;28;20451;-66
2021/01/02 12:08:18;;;;;;;56.57;47.03;;;4.80;99.90;;;;;;5034086;28;20802;-67
2021/01/02 12:10:44;;;;;;;58.47;46.07;;;4.70;99.90;;;;;;5035141;28;20480;-67
2021/01/02 12:13:10;;;;;;;55.63;45.13;;;4.60;99.90;;;;;;5020341;28;20992;-67
2021/01/02 12:15:38;;;;;;;57.70;43.50;;;4.60;99.90;;;;;;5015213;28;20821;-67
2021/01/02 12:18:04;;;;;;;63.97;46.90;;;4.60;99.90;;;;;;5016375;28;20453;-67
2021/01/02 12:20:31;;;;;;;56.17;45.20;;;4.60;99.90;;;;;;5025293;28;20444;-67
2021/01/02 12:22:57;;;;;;;60.37;48.90;;;4.60;99.90;;;;;;5019980;28;20460;-67
2021/01/02 12:25:24;;;;;;;59.40;49.30;;;4.50;99.90;;;;;;5014847;28;20503;-67
2021/01/02 12:27:51;;;;;;;56.70;47.40;;;4.50;99.90;;;;;;5016077;28;20454;-67
2021/01/02 12:30:18;;;;;;;63.83;51.07;;;4.70;99.90;;;;;;5014630;28;20450;-66
2021/01/02 12:32:46;;;;;;;64.77;51.90;;;4.60;99.90;;;;;;5025149;28;20987;-66
2021/01/02 12:35:12;;;;;;;58.60;48.07;;;4.60;99.90;;;;;;5034376;28;20471;-66
2021/01/02 12:37:39;;;;;;;61.17;48.47;;;4.70;99.90;;;;;;5024659;28;20510;-65
2021/01/02 12:40:06;;;;;;;69.77;54.23;;;4.60;99.90;;;;;;5015059;28;20449;-66
2021/01/02 12:42:38;;;;;;;64.57;54.47;;;4.60;99.90;;;;;;5022284;28;20441;-65
2021/01/02 12:45:07;;;;;;;63.40;51.50;;;4.60;99.90;;;;;;5028113;28;20473;-65
2021/01/02 12:47:33;;;;;;;63.40;49.50;;;4.60;99.90;;;;;;5015968;28;20453;-65
2021/01/02 12:50:00;;;;;;;67.07;51.93;;;4.70;99.90;;;;;;5018900;28;20452;-66
2021/01/02 12:52:29;;;;;;;60.47;50.00;;;4.60;99.90;;;;;;5034063;28;20856;-66